KAKO/AKO METAR and TAF weather

Enter ICAO airport designator
Station Type Date Time Source
KAKO METAR 2018/01/22 19:53 UTC NOAA

KAKO 221953Z AUTO 32010KT 10SM CLR M01/M07 A2997 RMK AO2 SLP182 T10061072


Station Type Date Time Source
KAKO Decoded METAR 2018/01/22 19:53 UTC NOAA

COLORADO PLAINS REGIONAL, CO, United States (KAKO) 40-10N 103-13W 1421M
Jan 22, 2018 - 02:53 PM EST / 2018.01.22 1953 UTC
Wind: from the NW (320 degrees) at 12 MPH (10 KT):0
Visibility: 10 mile(s):0
Sky conditions: clear
Temperature: 30.9 F (-0.6 C)
Windchill: 21 F (-6 C):1
Dew Point: 19.0 F (-7.2 C)
Relative Humidity: 60%
Pressure (altimeter): 29.97 in. Hg (1014 hPa)
ob: KAKO 221953Z AUTO 32010KT 10SM CLR M01/M07 A2997 RMK AO2 SLP182 T10061072
cycle: 20

Station Type Date Time Source
KAKO TAF UTC NOAA

Error!


Example: see airport list